Main page
METAR-TAF:

METAR-TAF

Airports :

Termez Airport

Termez, Uzbekistan

latitude: 37-14N, longitude: 067-16E, elevation: 302 m

Current weather observation

The report was made 43 minutes ago, at 01:00 UTC
Wind 8 kt from the North/Northeast
Temperature 14°C
Humidity 51%
Pressure 1015 hPa
Visibility 10 km or more
no clouds below 1500 m and no cumulonimbus

METAR: UTST 110100Z 02008KT CAVOK 14/04 Q1015 R88/CLRD70 NOSIG

Time: 06:43 (01:43 UTC)

Forecast

The report was made 2 hours and 43 minutes ago, at 23:00 UTC
Forecast valid from 11 at 00 UTC to 11 at 29 UTC
Wind 6 kt from variable directions
Visibility: 6000 m
Temporary
from 11 at 00 UTC to 11 at 11 UTC
Wind 12 kt from the North/Northeast with gusts up to 22 kt
Scattered clouds at a height of 6000 ft, Cumulonimbus.
Broken clouds at a height of 10000 ft

TAF: UTST 102300Z 1100/1129 VRB06KT 6000 NSC TEMPO 1100/1111 03012G22KT SCT060CB BKN100

Weather observations and forecasts of more than 4000 airports (METAR and TAF reports).

The available stations are represented by yellow and red dots on the map.

Hover mouse over dot to see the name of the station.

Then click to see weather observations and forecasts.

To change the map : click on the green buttons with a black cross to zoom in, on the green button with a dash to zoom out, or on the green arrows for adjacent maps.


METAR-TAF: